createdAt,value
2019-02-02T00:01:30.274Z,2.70
2019-02-02T00:03:59.962Z,2.80
2019-02-02T00:06:29.252Z,2.90
2019-02-02T00:08:58.748Z,3.00
2019-02-02T00:11:28.179Z,3.10
2019-02-02T00:13:57.796Z,3.00
2019-02-02T00:16:27.908Z,3.00
2019-02-02T00:18:59.346Z,3.10
2019-02-02T00:21:28.509Z,3.20
2019-02-02T00:23:58.237Z,3.20
2019-02-02T00:26:28.274Z,3.30
2019-02-02T00:28:58.019Z,3.30
2019-02-02T00:31:28.408Z,3.30
2019-02-02T00:33:58.588Z,3.30
2019-02-02T00:36:29.609Z,3.20
2019-02-02T00:38:58.688Z,3.20
2019-02-02T00:41:28.711Z,3.10
2019-02-02T00:43:58.580Z,3.00
2019-02-02T00:46:28.306Z,3.10
2019-02-02T00:48:59.028Z,3.10
2019-02-02T00:51:28.457Z,3.20
2019-02-02T00:53:58.517Z,3.10
2019-02-02T00:56:28.644Z,3.10
2019-02-02T00:58:58.892Z,3.20
2019-02-02T01:01:28.556Z,3.20
2019-02-02T01:03:58.953Z,3.30
2019-02-02T01:06:28.615Z,3.30
2019-02-02T01:08:58.964Z,3.30
2019-02-02T01:11:28.661Z,3.30
2019-02-02T01:13:59.112Z,3.30
2019-02-02T01:16:28.801Z,3.30
2019-02-02T01:18:59.032Z,3.30
2019-02-02T01:21:28.776Z,3.30
2019-02-02T01:23:59.092Z,3.30
2019-02-02T01:26:28.880Z,3.30
2019-02-02T01:28:59.227Z,3.30
2019-02-02T01:31:29.020Z,3.30
2019-02-02T01:33:59.000Z,3.20
2019-02-02T01:36:29.076Z,3.30
2019-02-02T01:38:59.348Z,3.30
2019-02-02T01:41:29.539Z,3.40
2019-02-02T01:43:59.298Z,3.40
2019-02-02T01:46:29.315Z,3.40
2019-02-02T01:48:59.476Z,3.40
2019-02-02T01:51:29.480Z,3.40
2019-02-02T01:53:59.532Z,3.40
2019-02-02T01:56:29.544Z,3.40
2019-02-02T01:59:00.140Z,3.40
2019-02-02T02:01:30.349Z,3.40
2019-02-02T02:03:59.560Z,3.50
2019-02-02T02:06:29.692Z,3.50
2019-02-02T02:08:59.585Z,3.50
2019-02-02T02:11:29.668Z,3.50
2019-02-02T02:13:59.656Z,3.50
2019-02-02T02:16:29.709Z,3.30
2019-02-02T02:18:59.649Z,3.30
2019-02-02T02:21:36.122Z,3.30
2019-02-02T02:24:05.476Z,3.30
2019-02-02T02:26:35.028Z,3.40
2019-02-02T02:29:04.124Z,3.50
2019-02-02T02:31:33.547Z,3.60
2019-02-02T02:34:04.215Z,3.50
2019-02-02T02:36:34.325Z,3.50
2019-02-02T02:39:04.946Z,3.50
2019-02-02T02:41:34.157Z,3.50
2019-02-02T02:44:04.292Z,3.60
2019-02-02T02:46:34.043Z,3.70
2019-02-02T02:49:03.914Z,3.70
2019-02-02T02:51:33.717Z,3.70
2019-02-02T02:54:04.003Z,3.70
2019-02-02T02:56:35.118Z,3.70
2019-02-02T02:59:04.456Z,3.70
2019-02-02T03:01:35.367Z,3.70
2019-02-02T03:04:04.572Z,3.70
2019-02-02T03:06:34.451Z,3.70
2019-02-02T03:09:05.344Z,3.70
2019-02-02T03:11:34.808Z,3.70
2019-02-02T03:14:05.100Z,3.70
2019-02-02T03:16:35.532Z,3.70
2019-02-02T03:19:05.360Z,3.80
2019-02-02T03:21:35.184Z,3.80
2019-02-02T03:24:05.248Z,3.70
2019-02-02T03:26:35.633Z,3.60
2019-02-02T03:29:06.027Z,3.60
2019-02-02T03:31:35.856Z,3.60
2019-02-02T03:34:05.903Z,3.70
2019-02-02T03:36:35.930Z,3.70
2019-02-02T03:39:09.901Z,3.80
2019-02-02T03:41:39.368Z,3.80
2019-02-02T03:44:08.440Z,3.70
2019-02-02T03:46:37.704Z,3.70
2019-02-02T03:49:06.813Z,3.70
2019-02-02T03:51:36.805Z,3.70
2019-02-02T03:54:09.048Z,3.70
2019-02-02T03:56:37.420Z,3.60
2019-02-02T03:59:07.338Z,3.50
2019-02-02T04:01:37.405Z,3.60
2019-02-02T04:04:07.341Z,3.60
2019-02-02T04:06:37.316Z,3.60
2019-02-02T04:09:08.500Z,3.50
2019-02-02T04:11:38.040Z,3.60
2019-02-02T04:14:07.528Z,3.60
2019-02-02T04:16:37.520Z,3.60
2019-02-02T04:19:07.873Z,3.50
2019-02-02T04:21:37.827Z,3.60
2019-02-02T04:24:07.906Z,3.60
2019-02-02T04:26:38.012Z,3.60
2019-02-02T04:29:17.607Z,3.70
2019-02-02T04:31:39.454Z,3.70
2019-02-02T04:34:08.917Z,3.70
2019-02-02T04:36:38.566Z,3.80
2019-02-02T04:39:08.880Z,3.80
2019-02-02T04:41:39.176Z,3.80
2019-02-02T04:44:09.496Z,3.80
2019-02-02T04:46:39.383Z,3.80
2019-02-02T04:49:09.353Z,3.70
2019-02-02T04:51:39.768Z,3.80
2019-02-02T04:54:09.593Z,3.80
2019-02-02T04:56:39.937Z,3.80
2019-02-02T04:59:10.120Z,3.80
2019-02-02T05:01:40.233Z,3.70
2019-02-02T05:04:10.017Z,3.80
2019-02-02T05:06:41.704Z,3.80
2019-02-02T05:09:10.785Z,3.80
2019-02-02T05:11:40.662Z,3.80
2019-02-02T05:14:09.727Z,3.70
2019-02-02T05:16:39.109Z,3.70
2019-02-02T05:19:08.509Z,3.70
2019-02-02T05:21:37.636Z,3.70
2019-02-02T05:24:06.798Z,3.70
2019-02-02T05:26:35.903Z,3.70
2019-02-02T05:29:05.123Z,3.60
2019-02-02T05:31:35.136Z,3.60
2019-02-02T05:34:04.429Z,3.60
2019-02-02T05:36:33.612Z,3.60
2019-02-02T05:39:04.119Z,3.60
2019-02-02T05:41:33.177Z,3.70
2019-02-02T05:44:02.448Z,3.70
2019-02-02T05:46:31.605Z,3.80
2019-02-02T05:49:02.077Z,3.70
2019-02-02T05:51:32.073Z,3.70
2019-02-02T05:54:01.596Z,3.70
2019-02-02T05:56:30.933Z,3.80
2019-02-02T05:59:00.077Z,3.80
2019-02-02T06:01:30.199Z,3.80
2019-02-02T06:04:00.740Z,3.80
2019-02-02T06:06:29.936Z,3.90
2019-02-02T06:08:59.472Z,3.80
2019-02-02T06:11:28.969Z,3.90
2019-02-02T06:13:58.034Z,3.90
2019-02-02T06:16:27.180Z,3.90
2019-02-02T06:18:56.272Z,3.90
2019-02-02T06:21:25.433Z,3.90
2019-02-02T06:23:54.854Z,4.00
2019-02-02T06:26:23.996Z,3.90
2019-02-02T06:28:53.176Z,3.90
2019-02-02T06:31:22.888Z,3.90
2019-02-02T06:33:52.336Z,3.90
2019-02-02T06:36:21.476Z,4.00
2019-02-02T06:38:50.795Z,4.10
2019-02-02T06:41:20.201Z,4.00
2019-02-02T06:43:49.704Z,4.00
2019-02-02T06:46:18.932Z,4.00
2019-02-02T06:48:47.996Z,4.00
2019-02-02T06:51:17.456Z,4.10
2019-02-02T06:53:46.638Z,4.10
2019-02-02T06:56:15.724Z,4.10
2019-02-02T06:58:45.157Z,4.10
2019-02-02T07:01:14.468Z,4.10
2019-02-02T07:03:43.624Z,4.10
2019-02-02T07:06:13.004Z,4.00
2019-02-02T07:08:42.561Z,4.10
2019-02-02T07:11:11.904Z,4.10
2019-02-02T07:13:40.993Z,4.10
2019-02-02T07:16:10.409Z,4.10
2019-02-02T07:18:39.521Z,4.20
2019-02-02T07:21:08.875Z,4.20
2019-02-02T07:23:38.017Z,4.20
2019-02-02T07:26:07.279Z,4.20
2019-02-02T07:28:36.325Z,4.30
2019-02-02T07:31:05.428Z,4.20
2019-02-02T07:33:36.139Z,4.20
2019-02-02T07:36:05.280Z,4.20
2019-02-02T07:38:34.405Z,4.20
2019-02-02T07:41:03.528Z,4.10
2019-02-02T07:43:32.934Z,4.10
2019-02-02T07:46:02.073Z,4.10
2019-02-02T07:48:31.209Z,4.20
2019-02-02T07:51:00.417Z,4.20
2019-02-02T07:53:29.572Z,4.20
2019-02-02T07:55:59.730Z,4.20
2019-02-02T07:58:28.869Z,4.20
2019-02-02T08:00:58.320Z,4.20
2019-02-02T08:03:28.062Z,4.20
2019-02-02T08:05:57.393Z,4.10
2019-02-02T08:08:26.448Z,4.10
2019-02-02T08:10:55.702Z,4.10
2019-02-02T08:13:24.870Z,4.10
2019-02-02T08:15:53.979Z,4.10
2019-02-02T08:18:23.083Z,4.10
2019-02-02T08:20:52.181Z,4.20
2019-02-02T08:23:21.288Z,4.20
2019-02-02T08:25:50.497Z,4.30
2019-02-02T08:28:21.636Z,4.30
2019-02-02T08:30:52.752Z,4.30
2019-02-02T08:33:21.767Z,4.30
2019-02-02T08:35:51.014Z,4.40
2019-02-02T08:38:20.121Z,4.30
2019-02-02T08:40:49.982Z,4.30
2019-02-02T08:43:21.257Z,4.30
2019-02-02T08:45:50.565Z,4.40
2019-02-02T08:48:19.712Z,4.40
2019-02-02T08:50:49.872Z,4.40
2019-02-02T08:53:19.791Z,4.40
2019-02-02T08:55:51.960Z,4.40
2019-02-02T08:58:21.040Z,4.40
2019-02-02T09:00:50.453Z,4.40
2019-02-02T09:03:20.224Z,4.40
2019-02-02T09:05:51.033Z,4.60
2019-02-02T09:08:20.589Z,4.50
2019-02-02T09:10:50.422Z,4.50
2019-02-02T09:13:20.521Z,4.50
2019-02-02T09:15:50.932Z,4.50
2019-02-02T09:18:20.617Z,4.50
2019-02-02T09:20:50.770Z,4.50
2019-02-02T09:23:21.205Z,4.50
2019-02-02T09:25:51.836Z,4.50
2019-02-02T09:28:21.434Z,4.50
2019-02-02T09:30:51.357Z,4.50
2019-02-02T09:33:21.289Z,4.50
2019-02-02T09:35:51.269Z,4.50
2019-02-02T09:38:21.286Z,4.90
2019-02-02T09:40:51.308Z,5.20
2019-02-02T09:43:21.372Z,5.00
2019-02-02T09:45:51.400Z,4.90
2019-02-02T09:48:20.665Z,4.90
2019-02-02T09:50:49.764Z,5.00
2019-02-02T09:53:19.004Z,5.10
2019-02-02T09:55:48.448Z,5.00
2019-02-02T09:58:17.529Z,5.20
2019-02-02T10:00:47.281Z,5.20
2019-02-02T10:03:16.441Z,5.30
2019-02-02T10:05:45.680Z,5.20
2019-02-02T10:08:14.810Z,5.10
2019-02-02T10:10:44.022Z,5.30
2019-02-02T10:13:13.413Z,5.40
2019-02-02T10:15:42.488Z,5.50
2019-02-02T10:18:12.016Z,5.30
2019-02-02T10:20:41.744Z,5.30
2019-02-02T10:23:10.812Z,5.30
2019-02-02T10:25:40.286Z,5.30
2019-02-02T10:28:09.771Z,5.20
2019-02-02T10:30:41.081Z,5.20
2019-02-02T10:33:11.120Z,5.10
2019-02-02T10:35:40.397Z,5.20
2019-02-02T10:38:09.607Z,5.20
2019-02-02T10:40:38.801Z,5.10
2019-02-02T10:43:08.312Z,5.00
2019-02-02T10:45:37.755Z,5.00
2019-02-02T10:48:07.344Z,4.80
2019-02-02T10:50:36.612Z,4.80
2019-02-02T10:53:06.205Z,4.70
2019-02-02T10:55:35.613Z,4.60
2019-02-02T10:58:05.737Z,4.60
2019-02-02T11:00:37.015Z,4.70
2019-02-02T11:03:06.521Z,4.50
2019-02-02T11:05:35.743Z,4.50
2019-02-02T11:08:06.340Z,4.40
2019-02-02T11:10:35.866Z,4.50
2019-02-02T11:13:05.747Z,4.50
2019-02-02T11:15:34.877Z,4.40
2019-02-02T11:18:04.863Z,4.40
2019-02-02T11:20:34.763Z,4.40
2019-02-02T11:23:04.018Z,4.40
2019-02-02T11:25:33.559Z,4.40
2019-02-02T11:28:02.874Z,4.50
2019-02-02T11:30:32.909Z,4.40
2019-02-02T11:33:02.185Z,4.50
2019-02-02T11:35:31.878Z,4.50
2019-02-02T11:38:01.123Z,4.50
2019-02-02T11:40:31.995Z,4.50
2019-02-02T11:43:01.489Z,4.60
2019-02-02T11:45:30.597Z,4.50
2019-02-02T11:48:00.079Z,4.50
2019-02-02T11:50:29.517Z,4.50
2019-02-02T11:52:58.662Z,4.50
2019-02-02T11:55:28.766Z,4.50
2019-02-02T11:57:59.129Z,4.40
2019-02-02T12:00:34.301Z,4.50
2019-02-02T12:03:04.439Z,4.50
2019-02-02T12:05:34.065Z,4.50
2019-02-02T12:08:03.212Z,4.50
2019-02-02T12:10:32.328Z,4.40
2019-02-02T12:13:01.529Z,4.30
2019-02-02T12:15:30.703Z,4.30
2019-02-02T12:17:59.844Z,4.30
2019-02-02T12:20:32.952Z,4.40
2019-02-02T12:23:00.786Z,4.40
2019-02-02T12:25:30.277Z,4.40
2019-02-02T12:28:00.352Z,4.40
2019-02-02T12:30:34.509Z,4.40
2019-02-02T12:33:04.851Z,4.50
2019-02-02T12:35:34.262Z,4.40
2019-02-02T12:38:03.731Z,4.30
2019-02-02T12:40:33.475Z,4.20
2019-02-02T12:43:02.566Z,4.20
2019-02-02T12:45:34.860Z,4.10
2019-02-02T12:48:05.646Z,4.10
2019-02-02T12:50:34.836Z,4.20
2019-02-02T12:53:05.238Z,4.10
2019-02-02T12:55:35.004Z,4.10
2019-02-02T12:58:05.388Z,4.10
2019-02-02T13:00:34.547Z,4.00
2019-02-02T13:03:03.990Z,4.10
2019-02-02T13:05:33.127Z,4.10
2019-02-02T13:08:05.426Z,4.10
2019-02-02T13:10:35.272Z,4.00
2019-02-02T13:13:07.664Z,4.10
2019-02-02T13:15:37.002Z,4.00
2019-02-02T13:18:06.256Z,3.90
2019-02-02T13:20:35.416Z,3.90
2019-02-02T13:23:04.712Z,4.00
2019-02-02T13:25:34.021Z,4.00
2019-02-02T13:28:03.886Z,4.00
2019-02-02T13:30:34.877Z,4.00
2019-02-02T13:33:04.392Z,4.00
2019-02-02T13:35:35.520Z,4.00
2019-02-02T13:38:05.188Z,3.90
2019-02-02T13:40:34.368Z,3.80
2019-02-02T13:43:03.472Z,3.90
2019-02-02T13:45:33.409Z,3.90
2019-02-02T13:48:05.885Z,3.80
2019-02-02T13:50:35.471Z,3.80
2019-02-02T13:53:05.484Z,3.80
2019-02-02T13:55:34.664Z,3.70
2019-02-02T13:58:03.905Z,3.60
2019-02-02T14:00:33.533Z,3.60
2019-02-02T14:03:03.997Z,3.70
2019-02-02T14:05:34.265Z,3.70
2019-02-02T14:08:05.452Z,3.70
2019-02-02T14:10:35.284Z,3.70
2019-02-02T14:13:06.245Z,3.80
2019-02-02T14:15:35.376Z,3.70
2019-02-02T14:18:04.924Z,3.60
2019-02-02T14:20:36.601Z,3.60
2019-02-02T14:23:06.220Z,3.50
2019-02-02T14:25:35.566Z,3.50
2019-02-02T14:28:05.090Z,3.50
2019-02-02T14:30:35.956Z,3.50
2019-02-02T14:33:13.722Z,3.50
2019-02-02T14:35:35.924Z,3.50
2019-02-02T14:38:05.045Z,3.60
2019-02-02T14:40:35.404Z,3.60
2019-02-02T14:43:05.365Z,3.60
2019-02-02T14:45:35.812Z,3.60
2019-02-02T14:48:05.439Z,3.50
2019-02-02T14:50:35.505Z,3.60
2019-02-02T14:53:06.004Z,3.60
2019-02-02T14:55:37.324Z,3.60
2019-02-02T14:58:06.860Z,3.60
2019-02-02T15:00:36.267Z,3.60
2019-02-02T15:03:07.235Z,3.70
2019-02-02T15:05:43.137Z,3.60
2019-02-02T15:08:07.412Z,3.60
2019-02-02T15:10:36.517Z,3.60
2019-02-02T15:13:07.425Z,3.50
2019-02-02T15:15:36.528Z,3.50
2019-02-02T15:18:06.344Z,3.50
2019-02-02T15:20:37.161Z,3.50
2019-02-02T15:23:07.569Z,3.40
2019-02-02T15:25:37.157Z,3.40
2019-02-02T15:28:07.328Z,3.30
2019-02-02T15:30:37.356Z,3.20
2019-02-02T15:33:07.593Z,3.20
2019-02-02T15:35:37.571Z,3.10
2019-02-02T15:38:07.718Z,3.10
2019-02-02T15:40:37.855Z,3.10
2019-02-02T15:43:08.046Z,3.10
2019-02-02T15:45:38.820Z,3.10
2019-02-02T15:48:08.505Z,3.10
2019-02-02T15:50:38.256Z,3.10
2019-02-02T15:53:08.280Z,3.10
2019-02-02T15:55:38.276Z,3.10
2019-02-02T15:58:08.620Z,3.10
2019-02-02T16:00:39.368Z,3.10
2019-02-02T16:03:09.375Z,3.10
2019-02-02T16:05:39.171Z,3.10
2019-02-02T16:08:16.977Z,3.10
2019-02-02T16:10:46.232Z,3.10
2019-02-02T16:13:15.688Z,3.10
2019-02-02T16:15:45.326Z,3.20
2019-02-02T16:18:14.819Z,3.10
2019-02-02T16:20:45.029Z,3.10
2019-02-02T16:23:14.277Z,3.10
2019-02-02T16:25:43.853Z,3.10
2019-02-02T16:28:13.185Z,3.20
2019-02-02T16:30:42.633Z,3.20
2019-02-02T16:33:12.596Z,3.20
2019-02-02T16:35:41.724Z,3.10
2019-02-02T16:38:11.237Z,3.10
2019-02-02T16:40:41.943Z,3.10
2019-02-02T16:43:11.091Z,3.10
2019-02-02T16:45:40.280Z,3.00
2019-02-02T16:48:10.200Z,3.10
2019-02-02T16:50:41.288Z,3.10
2019-02-02T16:53:11.040Z,3.00
2019-02-02T16:55:40.408Z,3.00
2019-02-02T16:58:10.461Z,3.00
2019-02-02T17:00:40.532Z,3.00
2019-02-02T17:03:10.461Z,3.00
2019-02-02T17:05:41.096Z,2.90
2019-02-02T17:08:11.073Z,2.90
2019-02-02T17:10:40.428Z,2.90
2019-02-02T17:13:10.812Z,2.90
2019-02-02T17:15:41.017Z,3.00
2019-02-02T17:18:11.308Z,2.90
2019-02-02T17:20:43.553Z,2.90
2019-02-02T17:23:12.952Z,3.00
2019-02-02T17:25:42.169Z,3.00
2019-02-02T17:28:12.048Z,2.90
2019-02-02T17:30:41.444Z,3.00
2019-02-02T17:33:14.064Z,3.00
2019-02-02T17:35:43.542Z,3.00
2019-02-02T17:38:13.084Z,3.00
2019-02-02T17:40:42.220Z,3.00
2019-02-02T17:43:11.922Z,2.90
2019-02-02T17:45:42.125Z,2.90
2019-02-02T17:48:13.241Z,3.00
2019-02-02T17:50:42.891Z,2.90
2019-02-02T17:53:12.687Z,3.00
2019-02-02T17:55:42.681Z,3.00
2019-02-02T17:58:13.456Z,3.00
2019-02-02T18:00:48.052Z,2.90
2019-02-02T18:03:17.204Z,3.00
2019-02-02T18:05:46.341Z,3.00
2019-02-02T18:08:15.907Z,3.00
2019-02-02T18:10:45.317Z,3.00
2019-02-02T18:13:14.437Z,3.00
2019-02-02T18:15:44.028Z,3.00
2019-02-02T18:18:14.316Z,3.10
2019-02-02T18:20:44.336Z,3.10
2019-02-02T18:23:14.206Z,3.10
2019-02-02T18:25:44.395Z,3.10
2019-02-02T18:28:14.971Z,3.10
2019-02-02T18:30:45.097Z,3.10
2019-02-02T18:33:14.492Z,3.10
2019-02-02T18:35:45.221Z,3.10
2019-02-02T18:38:14.928Z,3.00
2019-02-02T18:40:45.290Z,3.00
2019-02-02T18:43:15.990Z,3.00
2019-02-02T18:45:45.332Z,3.00
2019-02-02T18:48:14.528Z,3.10
2019-02-02T18:50:43.960Z,3.10
2019-02-02T18:53:13.194Z,3.00
2019-02-02T18:55:55.321Z,3.00
2019-02-02T18:58:24.441Z,3.00
2019-02-02T19:00:53.610Z,2.90
2019-02-02T19:03:23.074Z,3.00
2019-02-02T19:05:52.129Z,2.90
2019-02-02T19:08:21.244Z,2.90
2019-02-02T19:10:50.449Z,2.90
2019-02-02T19:13:19.616Z,2.90
2019-02-02T19:15:49.005Z,2.80
2019-02-02T19:18:18.411Z,2.70
2019-02-02T19:20:47.503Z,2.80
2019-02-02T19:23:24.806Z,2.80
2019-02-02T19:25:47.660Z,2.80
2019-02-02T19:28:17.351Z,2.80
2019-02-02T19:30:47.103Z,2.90
2019-02-02T19:33:17.319Z,2.90
2019-02-02T19:35:47.332Z,2.90
2019-02-02T19:38:19.862Z,2.90
2019-02-02T19:40:49.813Z,2.90
2019-02-02T19:43:19.064Z,2.80
2019-02-02T19:45:48.228Z,2.90
2019-02-02T19:48:17.857Z,2.90
2019-02-02T19:50:48.663Z,2.90
2019-02-02T19:53:18.312Z,2.90
2019-02-02T19:55:48.182Z,2.90
2019-02-02T19:58:18.189Z,2.90
2019-02-02T20:00:48.367Z,2.90
2019-02-02T20:03:18.280Z,2.90
2019-02-02T20:05:48.112Z,2.80
2019-02-02T20:08:18.210Z,2.80
2019-02-02T20:10:49.332Z,2.80
2019-02-02T20:13:19.588Z,2.80
2019-02-02T20:15:49.041Z,2.80
2019-02-02T20:18:18.367Z,2.90
2019-02-02T20:20:48.818Z,2.90
2019-02-02T20:23:18.529Z,2.90
2019-02-02T20:25:48.928Z,2.90
2019-02-02T20:28:18.800Z,2.90
2019-02-02T20:30:49.080Z,2.80
2019-02-02T20:33:20.147Z,2.80
2019-02-02T20:35:49.600Z,2.90
2019-02-02T20:38:19.505Z,2.90
2019-02-02T20:40:49.313Z,2.90
2019-02-02T20:43:19.594Z,2.90
2019-02-02T20:45:49.540Z,2.90
2019-02-02T20:48:19.718Z,2.90
2019-02-02T20:50:50.525Z,2.90
2019-02-02T20:53:20.121Z,2.90
2019-02-02T20:55:49.930Z,2.90
2019-02-02T20:58:20.054Z,2.90
2019-02-02T21:00:50.024Z,2.90
2019-02-02T21:03:20.281Z,2.90
2019-02-02T21:05:52.415Z,3.00
2019-02-02T21:08:21.960Z,2.90
2019-02-02T21:10:51.149Z,2.90
2019-02-02T21:13:20.984Z,2.80
2019-02-02T21:15:51.049Z,2.90
2019-02-02T21:18:21.118Z,2.80
2019-02-02T21:20:51.573Z,2.80
2019-02-02T21:23:21.561Z,2.80
2019-02-02T21:25:51.808Z,2.80
2019-02-02T21:28:22.304Z,2.80
2019-02-02T21:30:52.050Z,2.80
2019-02-02T21:33:22.653Z,2.80
2019-02-02T21:36:03.276Z,2.90
2019-02-02T21:38:23.472Z,2.80
2019-02-02T21:40:52.587Z,2.80
2019-02-02T21:43:23.292Z,2.80
2019-02-02T21:45:52.712Z,2.80
2019-02-02T21:48:22.713Z,2.80
2019-02-02T21:50:52.620Z,2.80
2019-02-02T21:53:22.598Z,2.80
2019-02-02T21:55:52.493Z,2.80
2019-02-02T21:58:22.681Z,2.80
2019-02-02T22:00:52.631Z,2.80
2019-02-02T22:03:22.752Z,2.80
2019-02-02T22:05:52.942Z,2.80
2019-02-02T22:08:22.772Z,2.90
2019-02-02T22:10:53.132Z,2.90
2019-02-02T22:13:23.051Z,2.90
2019-02-02T22:15:53.004Z,2.80
2019-02-02T22:18:23.070Z,2.90
2019-02-02T22:20:53.451Z,2.90
2019-02-02T22:23:23.317Z,2.80
2019-02-02T22:25:53.314Z,2.80
2019-02-02T22:28:23.369Z,2.80
2019-02-02T22:30:53.885Z,2.80
2019-02-02T22:33:23.444Z,2.80
2019-02-02T22:35:53.820Z,2.80
2019-02-02T22:38:24.061Z,2.80
2019-02-02T22:40:53.969Z,2.80
2019-02-02T22:43:23.757Z,2.80
2019-02-02T22:45:53.977Z,2.80
2019-02-02T22:48:24.090Z,2.80
2019-02-02T22:50:54.106Z,2.80
2019-02-02T22:53:24.229Z,2.80
2019-02-02T22:55:54.000Z,2.80
2019-02-02T22:58:23.946Z,2.80
2019-02-02T23:01:10.958Z,2.80
2019-02-02T23:04:05.785Z,2.80
2019-02-02T23:06:56.009Z,2.90
2019-02-02T23:09:52.409Z,2.90
2019-02-02T23:12:54.525Z,2.90
2019-02-02T23:16:13.407Z,2.80
2019-02-02T23:18:49.962Z,2.80
2019-02-02T23:21:19.332Z,2.80
2019-02-02T23:23:48.829Z,2.90
2019-02-02T23:26:17.984Z,2.90
2019-02-02T23:28:47.168Z,2.90
2019-02-02T23:31:16.549Z,2.80
2019-02-02T23:33:45.732Z,2.80
2019-02-02T23:36:15.164Z,2.80
2019-02-02T23:38:44.496Z,2.80
2019-02-02T23:41:14.765Z,2.80
2019-02-02T23:43:44.577Z,2.90
2019-02-02T23:46:14.332Z,2.80
2019-02-02T23:48:43.564Z,2.90
2019-02-02T23:51:12.981Z,2.80
2019-02-02T23:53:42.459Z,2.80
2019-02-02T23:56:11.562Z,2.80
2019-02-02T23:58:40.644Z,2.80
